Pagrindinis puslapis
METAR-TAF:

METAR-TAF

Oro uostai :

Honningsvåg, Norvegija

platuma: 71-01N, ilguma: 025-59E, Aukštis: 1 m

Dabartinis oras

Ataskaita buvo paskelbta 17 minutes, ne 14:20 UTC
Vėjas 12 kt iš Pietryčių
Temperatūra -2°C
Drėgmė 63%
Slėgis 1027 hPa
Matomumas 10 km arba daugiau
sniegas,

METAR: ENHV 201420Z AUTO 13012KT 9999 -SN FEW006/// BKN025/// OVC034/// M02/M08 Q1027

Laikas: 16:37 (14:37 UTC)

Prognozė

Ataskaita buvo paskelbta 37 minutes, ne 14:00 UTC
Prognozė galioja nuo 19 metu 15 UTC su 19 metu 22 UTC
Vėjas 18 kt iš Pietų/Pietryčių
Matomumas 10 km arba daugiau
nėra debesų žemiau 1500 m ir nėra kamuolinių lietaus debesų
Laikinai
nuo 19 metu 15 UTC su 19 metu 18 UTC
Vėjas 18 kt iš Pietų/Pietryčių su gūsio iki 28 kt
Laikinai
nuo 19 metu 18 UTC su 19 metu 22 UTC
Vėjas 20 kt iš Pietų/Pietryčių su gūsio iki 33 kt

TAF: ENHV 191400Z 1915/1922 16018KT CAVOK TEMPO 1915/1918 16018G28KT TEMPO 1918/1922 16020G33KT

Orai ataskaitas ir orų prognozės (METAR, TAF).

turimą stotys yra geltonos ir raudonos taškus žemėlapyje.

Perkelti pele per norėdami pamatyti stoties vardą.

Tada spustelėkite, norėdami matyti oro stebėjimo ir prognozės.

Norėdami pakeisti žemėlapį: spustelėkite ant žalios mygtukų su juodo kryžiaus žemyn,; žalią mygtuką su brūkšneliu, jei norite nutolinti; arba žalių rodyklių gretimoms žemėlapius.


METAR-TAF: